createdAt,value
2022-08-08T00:01:06.807Z,32.85
2022-08-08T00:03:35.290Z,32.84
2022-08-08T00:06:04.034Z,32.84
2022-08-08T00:08:30.921Z,32.85
2022-08-08T00:10:57.312Z,32.89
2022-08-08T00:14:15.273Z,32.86
2022-08-08T00:16:10.396Z,32.85
2022-08-08T00:18:37.154Z,32.86
2022-08-08T00:21:06.199Z,32.86
2022-08-08T00:23:43.154Z,32.84
2022-08-08T00:26:15.119Z,32.84
2022-08-08T00:28:52.917Z,32.84
2022-08-08T00:32:28.438Z,32.85
2022-08-08T00:34:18.276Z,33.45
2022-08-08T00:36:46.122Z,32.95
2022-08-08T00:39:36.250Z,32.86
2022-08-08T00:42:08.836Z,32.83
2022-08-08T00:44:40.455Z,32.84
2022-08-08T00:47:19.588Z,32.85
2022-08-08T00:49:58.639Z,32.84
2022-08-08T00:52:29.178Z,32.85
2022-08-08T00:55:06.753Z,32.85
2022-08-08T00:57:36.799Z,32.84
2022-08-08T01:00:05.094Z,32.83
2022-08-08T01:03:57.572Z,32.79
2022-08-08T01:05:29.102Z,32.77
2022-08-08T01:08:05.717Z,32.74
2022-08-08T01:10:33.411Z,32.74
2022-08-08T01:12:59.845Z,33.16
2022-08-08T01:15:44.251Z,32.80
2022-08-08T01:18:19.717Z,32.66
2022-08-08T01:20:59.047Z,32.64
2022-08-08T01:24:06.129Z,32.60
2022-08-08T01:26:13.210Z,32.59
2022-08-08T01:28:39.770Z,32.59
2022-08-08T01:31:06.219Z,32.59
2022-08-08T01:34:00.928Z,32.58
2022-08-08T01:36:27.962Z,32.58
2022-08-08T01:38:54.635Z,32.59
2022-08-08T01:41:21.671Z,32.55
2022-08-08T01:43:50.584Z,32.55
2022-08-08T01:46:17.478Z,32.55
2022-08-08T01:48:46.349Z,32.52
2022-08-08T01:51:31.862Z,33.00
2022-08-08T01:54:57.608Z,32.63
2022-08-08T01:56:49.916Z,32.52
2022-08-08T01:59:16.375Z,32.50
2022-08-08T02:02:00.194Z,32.49
2022-08-08T02:04:29.775Z,32.48
2022-08-08T02:06:56.179Z,32.47
2022-08-08T02:10:01.997Z,32.46
2022-08-08T02:12:09.040Z,32.45
2022-08-08T02:14:55.259Z,32.45
2022-08-08T02:17:25.494Z,32.43
2022-08-08T02:20:07.967Z,32.44
2022-08-08T02:22:52.607Z,32.46
2022-08-08T02:25:21.470Z,32.44
2022-08-08T02:27:49.185Z,32.77
2022-08-08T02:30:21.165Z,32.73
2022-08-08T02:32:53.491Z,32.47
2022-08-08T02:35:22.087Z,32.42
2022-08-08T02:37:52.579Z,32.41
2022-08-08T02:40:23.463Z,32.41
2022-08-08T02:44:35.858Z,32.39
2022-08-08T02:45:51.354Z,32.38
2022-08-08T02:48:25.825Z,32.37
2022-08-08T02:50:55.818Z,32.37
2022-08-08T02:53:24.150Z,32.35
2022-08-08T02:55:59.762Z,32.35
2022-08-08T02:58:26.866Z,32.34
2022-08-08T03:00:53.382Z,32.37
2022-08-08T03:05:05.355Z,32.38
2022-08-08T03:06:07.992Z,32.80
2022-08-08T03:08:36.847Z,32.54
2022-08-08T03:11:03.259Z,32.37
2022-08-08T03:15:53.421Z,32.35
2022-08-08T03:16:19.683Z,32.34
2022-08-08T03:19:00.966Z,32.32
2022-08-08T03:21:54.780Z,32.33
2022-08-08T03:24:15.708Z,32.33
2022-08-08T03:26:43.048Z,32.31
2022-08-08T03:29:16.790Z,32.32
2022-08-08T03:32:05.413Z,32.33
2022-08-08T03:34:33.537Z,32.34
2022-08-08T03:36:59.963Z,32.35
2022-08-08T03:39:26.379Z,32.33
2022-08-08T03:42:29.102Z,32.50
2022-08-08T03:44:39.334Z,32.76
2022-08-08T03:47:14.119Z,32.38
2022-08-08T03:49:57.285Z,32.30
2022-08-08T03:52:28.349Z,32.28
2022-08-08T03:55:10.569Z,32.31
2022-08-08T03:58:31.360Z,32.29
2022-08-08T04:00:30.707Z,32.28
2022-08-08T04:02:57.533Z,32.28
2022-08-08T04:05:28.228Z,32.27
2022-08-08T04:07:55.387Z,32.28
2022-08-08T04:10:21.780Z,32.27
2022-08-08T04:12:48.564Z,32.26
2022-08-08T04:15:16.487Z,32.27
2022-08-08T04:17:58.541Z,32.28
2022-08-08T04:20:28.367Z,32.74
2022-08-08T04:22:56.960Z,32.45
2022-08-08T04:25:27.956Z,32.27
2022-08-08T04:28:02.231Z,32.27
2022-08-08T04:30:44.647Z,32.24
2022-08-08T04:33:11.415Z,32.25
2022-08-08T04:35:39.350Z,32.25
2022-08-08T04:38:06.311Z,32.25
2022-08-08T04:40:36.138Z,32.23
2022-08-08T04:43:02.593Z,32.23
2022-08-08T04:45:31.903Z,32.23
2022-08-08T04:48:00.698Z,32.25
2022-08-08T04:50:34.372Z,32.26
2022-08-08T04:53:52.273Z,32.27
2022-08-08T04:55:55.991Z,32.40
2022-08-08T04:58:23.150Z,32.80
2022-08-08T05:00:49.994Z,32.34
2022-08-08T05:03:18.749Z,32.23
2022-08-08T05:06:13.516Z,32.20
2022-08-08T05:08:44.775Z,32.17
2022-08-08T05:11:11.313Z,32.18
2022-08-08T05:13:54.880Z,32.15
2022-08-08T05:16:55.393Z,32.11
2022-08-08T05:20:11.231Z,32.09
2022-08-08T05:21:58.236Z,32.10
2022-08-08T05:24:27.059Z,32.08
2022-08-08T05:26:53.478Z,32.05
2022-08-08T05:29:19.986Z,32.03
2022-08-08T05:32:05.134Z,32.38
2022-08-08T05:34:32.315Z,32.23
2022-08-08T05:36:58.742Z,32.02
2022-08-08T05:39:28.626Z,32.00
2022-08-08T05:42:01.348Z,31.97
2022-08-08T05:44:31.205Z,31.97
2022-08-08T05:47:03.136Z,31.95
2022-08-08T05:49:31.363Z,31.94
2022-08-08T05:51:57.751Z,31.93
2022-08-08T05:54:42.756Z,31.91
2022-08-08T05:57:11.449Z,31.91
2022-08-08T05:59:59.838Z,31.81
2022-08-08T06:02:30.182Z,31.77
2022-08-08T06:04:56.719Z,31.93
2022-08-08T06:07:23.223Z,31.99
2022-08-08T06:09:59.547Z,31.67
2022-08-08T06:12:30.931Z,31.61
2022-08-08T06:14:58.022Z,31.55
2022-08-08T06:17:50.415Z,31.54
2022-08-08T06:20:11.696Z,31.53
2022-08-08T06:22:38.744Z,31.51
2022-08-08T06:25:08.783Z,31.49
2022-08-08T06:27:36.848Z,31.46
2022-08-08T06:30:05.265Z,31.45
2022-08-08T06:32:33.823Z,31.44
2022-08-08T06:36:00.799Z,31.41
2022-08-08T06:37:46.638Z,31.71
2022-08-08T06:40:17.627Z,31.57
2022-08-08T06:42:44.054Z,31.41
2022-08-08T06:45:10.461Z,31.39
2022-08-08T06:47:52.647Z,31.37
2022-08-08T06:50:32.295Z,31.33
2022-08-08T06:53:01.482Z,31.34
2022-08-08T06:55:41.572Z,31.33
2022-08-08T06:58:08.479Z,31.31
2022-08-08T07:00:35.240Z,31.31
2022-08-08T07:03:07.505Z,31.34
2022-08-08T07:05:40.168Z,31.34
2022-08-08T07:08:06.961Z,31.34
2022-08-08T07:10:35.300Z,31.71
2022-08-08T07:13:04.290Z,31.46
2022-08-08T07:16:03.849Z,31.33
2022-08-08T07:18:35.487Z,31.31
2022-08-08T07:21:04.640Z,31.27
2022-08-08T07:24:01.504Z,31.26
2022-08-08T07:26:18.091Z,31.27
2022-08-08T07:28:56.475Z,31.24
2022-08-08T07:31:22.989Z,31.25
2022-08-08T07:33:53.384Z,31.25
2022-08-08T07:36:25.554Z,31.26
2022-08-08T07:38:53.339Z,31.27
2022-08-08T07:41:24.795Z,31.40
2022-08-08T07:43:53.645Z,31.67
2022-08-08T07:46:28.974Z,31.34
2022-08-08T07:48:57.865Z,31.27
2022-08-08T07:51:45.470Z,31.28
2022-08-08T07:54:10.806Z,31.25
2022-08-08T07:56:42.462Z,31.27
2022-08-08T07:59:08.842Z,31.28
2022-08-08T08:02:33.285Z,31.28
2022-08-08T08:04:23.315Z,31.26
2022-08-08T08:06:51.255Z,31.28
2022-08-08T08:09:17.642Z,31.28
2022-08-08T08:11:51.852Z,31.29
2022-08-08T08:14:20.212Z,31.44
2022-08-08T08:16:48.555Z,31.74
2022-08-08T08:19:17.240Z,31.40
2022-08-08T08:21:52.290Z,31.31
2022-08-08T08:24:30.505Z,31.30
2022-08-08T08:26:57.562Z,31.31
2022-08-08T08:29:24.025Z,31.31
2022-08-08T08:31:57.750Z,31.32
2022-08-08T08:34:24.998Z,31.30
2022-08-08T08:36:59.069Z,31.30
2022-08-08T08:39:59.499Z,31.34
2022-08-08T08:42:12.016Z,31.35
2022-08-08T08:44:39.973Z,31.34
2022-08-08T08:47:08.865Z,31.46
2022-08-08T08:49:36.855Z,31.80
2022-08-08T08:52:09.586Z,31.44
2022-08-08T08:54:36.001Z,31.38
2022-08-08T08:57:15.715Z,31.38
2022-08-08T08:59:59.221Z,31.39
2022-08-08T09:02:28.452Z,31.42
2022-08-08T09:04:54.895Z,31.44
2022-08-08T09:07:24.071Z,31.46
2022-08-08T09:10:07.508Z,31.51
2022-08-08T09:12:40.098Z,31.50
2022-08-08T09:15:11.776Z,31.55
2022-08-08T09:17:42.028Z,31.57
2022-08-08T09:21:57.053Z,31.59
2022-08-08T09:23:11.429Z,31.96
2022-08-08T09:25:54.935Z,31.68
2022-08-08T09:28:37.998Z,31.60
2022-08-08T09:31:12.508Z,31.62
2022-08-08T09:34:15.161Z,31.63
2022-08-08T09:36:26.101Z,31.64
2022-08-08T09:38:54.199Z,31.65
2022-08-08T09:41:20.747Z,31.69
2022-08-08T09:44:06.939Z,31.67
2022-08-08T09:46:33.552Z,31.69
2022-08-08T09:49:18.211Z,31.71
2022-08-08T09:52:07.200Z,31.72
2022-08-08T09:54:36.855Z,31.74
2022-08-08T09:57:16.095Z,32.02
2022-08-08T10:02:36.477Z,31.76
2022-08-08T10:05:14.354Z,31.78
2022-08-08T10:07:43.470Z,31.79
2022-08-08T10:10:11.753Z,31.79
2022-08-08T10:12:53.757Z,31.80
2022-08-08T10:15:24.397Z,31.80
2022-08-08T10:18:05.335Z,31.82
2022-08-08T10:20:41.390Z,31.82
2022-08-08T10:23:20.927Z,31.84
2022-08-08T10:28:53.652Z,31.88
2022-08-08T10:31:20.547Z,32.02
2022-08-08T10:34:18.723Z,32.21
2022-08-08T10:36:46.533Z,31.91
2022-08-08T10:39:13.984Z,31.89
2022-08-08T10:41:58.567Z,31.91
2022-08-08T10:44:27.532Z,31.88
2022-08-08T10:46:55.741Z,31.92
2022-08-08T10:49:26.861Z,31.94
2022-08-08T10:52:09.637Z,31.99
2022-08-08T10:54:40.649Z,31.99
2022-08-08T10:57:08.805Z,31.99
2022-08-08T10:59:39.694Z,31.97
2022-08-08T11:02:07.365Z,32.00
2022-08-08T11:04:39.093Z,32.01
2022-08-08T11:07:05.886Z,32.22
2022-08-08T11:09:33.388Z,32.27
2022-08-08T11:12:12.743Z,32.02
2022-08-08T11:14:40.184Z,31.97
2022-08-08T11:17:15.023Z,32.00
2022-08-08T11:19:42.373Z,32.00
2022-08-08T11:22:13.286Z,32.01
2022-08-08T11:24:40.165Z,32.00
2022-08-08T11:27:10.555Z,31.98
2022-08-08T11:29:58.139Z,32.01
2022-08-08T11:32:36.496Z,32.02
2022-08-08T11:35:23.212Z,32.04
2022-08-08T11:38:39.129Z,32.07
2022-08-08T11:40:36.080Z,32.06
2022-08-08T11:43:02.460Z,32.25
2022-08-08T11:45:29.952Z,32.37
2022-08-08T11:48:09.762Z,32.08
2022-08-08T11:50:36.652Z,32.07
2022-08-08T11:53:06.651Z,32.08
2022-08-08T11:55:33.226Z,32.07
2022-08-08T11:58:02.318Z,32.07
2022-08-08T12:00:33.487Z,32.09
2022-08-08T12:03:01.889Z,32.08
2022-08-08T12:05:29.176Z,32.12
2022-08-08T12:08:00.128Z,32.12
2022-08-08T12:10:28.534Z,32.11
2022-08-08T12:12:55.949Z,32.13
2022-08-08T12:15:22.473Z,32.14
2022-08-08T12:17:51.022Z,32.17
2022-08-08T12:20:18.919Z,32.51
2022-08-08T12:22:46.047Z,32.27
2022-08-08T12:27:52.979Z,32.14
2022-08-08T12:30:25.772Z,32.14
2022-08-08T12:32:52.365Z,32.14
2022-08-08T12:35:18.926Z,32.14
2022-08-08T12:38:01.110Z,32.14
2022-08-08T12:40:28.334Z,32.13
2022-08-08T12:42:54.851Z,32.12
2022-08-08T12:45:59.590Z,32.15
2022-08-08T12:48:18.147Z,32.14
2022-08-08T12:50:57.496Z,32.16
2022-08-08T12:53:24.828Z,32.16
2022-08-08T13:04:27.753Z,32.17
2022-08-08T13:06:56.126Z,32.14
2022-08-08T13:09:22.543Z,32.15
2022-08-08T13:12:27.940Z,32.16
2022-08-08T13:14:35.720Z,32.16
2022-08-08T13:17:04.713Z,32.15
2022-08-08T13:19:41.132Z,32.16
2022-08-08T13:22:24.502Z,32.15
2022-08-08T13:24:51.531Z,32.17
2022-08-08T13:27:18.429Z,32.17
2022-08-08T13:29:49.035Z,32.17
2022-08-08T13:32:17.226Z,32.50
2022-08-08T13:34:47.391Z,32.33
2022-08-08T13:37:19.776Z,32.18
2022-08-08T13:40:05.394Z,32.16
2022-08-08T13:42:32.122Z,32.17
2022-08-08T13:45:00.463Z,32.21
2022-08-08T13:47:27.026Z,32.21
2022-08-08T13:50:39.780Z,32.20
2022-08-08T13:52:40.262Z,32.20
2022-08-08T13:55:07.590Z,32.21
2022-08-08T13:58:06.481Z,32.22
2022-08-08T14:00:22.297Z,32.21
2022-08-08T14:02:49.507Z,32.21
2022-08-08T14:05:20.528Z,32.21
2022-08-08T14:07:51.835Z,32.43
2022-08-08T14:10:33.092Z,32.46
2022-08-08T14:13:05.204Z,32.21
2022-08-08T14:15:39.898Z,32.21
2022-08-08T14:18:36.531Z,32.18
2022-08-08T14:21:12.549Z,32.18
2022-08-08T14:24:03.870Z,32.19
2022-08-08T14:26:28.539Z,32.22
2022-08-08T14:28:55.179Z,32.23
2022-08-08T14:31:36.614Z,32.22
2022-08-08T14:34:07.978Z,32.20
2022-08-08T14:36:51.545Z,32.21
2022-08-08T14:39:20.218Z,32.21
2022-08-08T14:41:54.464Z,32.22
2022-08-08T14:44:23.705Z,32.41
2022-08-08T14:46:55.722Z,32.45
2022-08-08T14:49:31.868Z,32.25
2022-08-08T14:52:00.046Z,32.23
2022-08-08T14:54:29.799Z,32.21
2022-08-08T14:56:56.231Z,32.17
2022-08-08T14:59:44.044Z,32.19
2022-08-08T15:02:10.154Z,32.19
2022-08-08T15:04:41.669Z,32.20
2022-08-08T15:07:08.121Z,32.20
2022-08-08T15:09:49.716Z,32.22
2022-08-08T15:12:17.867Z,32.23
2022-08-08T15:14:53.971Z,32.24
2022-08-08T15:17:20.417Z,32.24
2022-08-08T15:19:47.357Z,32.24
2022-08-08T15:22:18.084Z,32.48
2022-08-08T15:24:50.708Z,32.40
2022-08-08T15:28:03.383Z,32.25
2022-08-08T15:30:05.026Z,32.21
2022-08-08T15:32:36.689Z,32.21
2022-08-08T15:35:07.060Z,32.20
2022-08-08T15:37:35.212Z,32.18
2022-08-08T15:40:01.790Z,32.20
2022-08-08T15:42:32.307Z,32.20
2022-08-08T15:44:59.439Z,32.19
2022-08-08T15:47:25.980Z,32.20
2022-08-08T15:49:52.432Z,32.18
2022-08-08T15:52:20.501Z,32.21
2022-08-08T15:54:51.734Z,32.22
2022-08-08T15:57:18.956Z,32.23
2022-08-08T16:00:06.255Z,32.51
2022-08-08T16:02:32.484Z,32.36
2022-08-08T16:04:59.447Z,32.20
2022-08-08T16:07:51.986Z,32.19
2022-08-08T16:13:02.560Z,32.17
2022-08-08T16:13:11.731Z,32.16
2022-08-08T16:15:57.516Z,32.14
2022-08-08T16:18:25.811Z,32.14
2022-08-08T16:20:52.372Z,32.14
2022-08-08T16:23:18.788Z,32.12
2022-08-08T16:25:54.679Z,32.13
2022-08-08T16:28:35.641Z,32.18
2022-08-08T16:31:06.284Z,32.21
2022-08-08T16:33:38.019Z,32.26
2022-08-08T16:36:05.924Z,32.52
2022-08-08T16:38:35.689Z,32.68
2022-08-08T16:41:07.278Z,32.37
2022-08-08T16:43:48.811Z,32.33
2022-08-08T16:46:36.083Z,32.30
2022-08-08T16:49:03.696Z,32.29
2022-08-08T16:55:03.233Z,32.29
2022-08-08T16:55:19.331Z,32.30
2022-08-08T16:57:22.752Z,32.31
2022-08-08T16:59:52.210Z,32.32
2022-08-08T17:02:37.821Z,32.34
2022-08-08T17:05:05.598Z,32.32
2022-08-08T17:07:32.087Z,32.34
2022-08-08T17:09:59.049Z,32.34
2022-08-08T17:12:28.640Z,32.33
2022-08-08T17:14:55.371Z,32.69
2022-08-08T17:17:41.643Z,32.59
2022-08-08T17:20:08.883Z,32.38
2022-08-08T17:22:42.294Z,32.34
2022-08-08T17:25:09.232Z,32.32
2022-08-08T17:27:46.178Z,32.32
2022-08-08T17:30:27.548Z,32.32
2022-08-08T17:33:43.928Z,32.31
2022-08-08T17:35:54.166Z,32.32
2022-08-08T17:38:22.777Z,32.32
2022-08-08T17:40:49.326Z,32.33
2022-08-08T17:43:15.795Z,32.33
2022-08-08T17:45:42.523Z,32.35
2022-08-08T17:48:14.917Z,32.35
2022-08-08T17:50:55.347Z,32.36
2022-08-08T17:53:31.168Z,32.78
2022-08-08T17:56:08.839Z,32.48
2022-08-08T17:58:35.364Z,32.34
2022-08-08T18:01:01.769Z,32.37
2022-08-08T18:03:30.950Z,32.39
2022-08-08T18:05:59.692Z,32.42
2022-08-08T18:08:40.784Z,32.43
2022-08-08T18:11:09.059Z,32.44
2022-08-08T18:13:41.880Z,32.46
2022-08-08T18:16:08.836Z,32.46
2022-08-08T18:18:39.141Z,32.48
2022-08-08T18:21:10.731Z,32.50
2022-08-08T18:23:55.687Z,32.50
2022-08-08T18:26:22.668Z,32.52
2022-08-08T18:28:54.881Z,32.55
2022-08-08T18:31:21.884Z,32.85
2022-08-08T18:34:11.221Z,33.06
2022-08-08T18:36:35.933Z,32.63
2022-08-08T18:39:02.545Z,32.60
2022-08-08T18:41:51.390Z,32.59
2022-08-08T18:44:15.454Z,32.57
2022-08-08T18:46:56.206Z,32.54
2022-08-08T18:49:24.283Z,32.57
2022-08-08T18:51:53.811Z,32.56
2022-08-08T18:54:22.490Z,32.57
2022-08-08T18:56:51.432Z,32.55
2022-08-08T18:59:17.857Z,32.57
2022-08-08T19:02:27.309Z,32.55
2022-08-08T19:04:30.815Z,32.57
2022-08-08T19:06:57.224Z,32.59
2022-08-08T19:09:48.337Z,32.59
2022-08-08T19:12:13.464Z,33.05
2022-08-08T19:14:40.091Z,32.92
2022-08-08T19:17:10.799Z,32.67
2022-08-08T19:19:37.518Z,32.64
2022-08-08T19:22:10.754Z,32.61
2022-08-08T19:24:54.342Z,32.61
2022-08-08T19:27:28.009Z,32.57
2022-08-08T19:30:24.192Z,32.59
2022-08-08T19:32:52.611Z,32.60
2022-08-08T19:35:20.033Z,32.60
2022-08-08T19:37:55.403Z,32.62
2022-08-08T19:40:30.982Z,32.61
2022-08-08T19:42:59.271Z,32.63
2022-08-08T19:45:58.203Z,32.62
2022-08-08T19:48:29.243Z,32.63
2022-08-08T19:50:57.650Z,32.77
2022-08-08T19:53:53.536Z,33.28
2022-08-08T19:56:12.849Z,32.76
2022-08-08T19:58:39.540Z,32.67
2022-08-08T20:01:08.570Z,32.64
2022-08-08T20:04:01.889Z,32.63
2022-08-08T20:06:29.078Z,32.62
2022-08-08T20:08:55.574Z,32.60
2022-08-08T20:11:22.273Z,32.62
2022-08-08T20:14:31.783Z,32.61
2022-08-08T20:16:41.784Z,32.62
2022-08-08T20:19:08.192Z,32.60
2022-08-08T20:21:38.085Z,32.60
2022-08-08T20:24:05.925Z,32.63
2022-08-08T20:26:34.202Z,32.62
2022-08-08T20:29:00.674Z,32.61
2022-08-08T20:31:47.125Z,32.88
2022-08-08T20:34:30.573Z,33.07
2022-08-08T20:36:58.291Z,32.71
2022-08-08T20:39:24.768Z,32.65
2022-08-08T20:42:00.450Z,32.66
2022-08-08T20:44:26.862Z,32.66
2022-08-08T20:46:53.251Z,32.62
2022-08-08T20:49:22.879Z,32.61
2022-08-08T20:51:58.942Z,32.61
2022-08-08T20:54:28.240Z,32.58
2022-08-08T20:57:04.009Z,32.59
2022-08-08T20:59:41.706Z,32.61
2022-08-08T21:02:08.978Z,32.59
2022-08-08T21:04:39.105Z,32.62
2022-08-08T21:07:15.887Z,32.61
2022-08-08T21:09:48.467Z,32.62
2022-08-08T21:12:33.235Z,33.03
2022-08-08T21:15:01.131Z,32.92
2022-08-08T21:17:33.716Z,32.66
2022-08-08T21:20:03.748Z,32.63
2022-08-08T21:22:30.355Z,32.60
2022-08-08T21:24:56.876Z,32.63
2022-08-08T21:28:05.679Z,32.60
2022-08-08T21:30:16.416Z,32.59
2022-08-08T21:32:45.978Z,32.60
2022-08-08T21:36:16.280Z,32.60
2022-08-08T21:38:11.803Z,32.60
2022-08-08T21:40:56.273Z,32.59
2022-08-08T21:43:23.436Z,32.59
2022-08-08T21:48:08.148Z,32.60
2022-08-08T21:48:41.483Z,32.61
2022-08-08T21:51:11.348Z,32.85
2022-08-08T21:54:27.496Z,33.23
2022-08-08T21:56:31.312Z,32.71
2022-08-08T21:59:02.456Z,32.60
2022-08-08T22:01:41.165Z,32.63
2022-08-08T22:04:10.500Z,32.60
2022-08-08T22:06:40.589Z,32.58
2022-08-08T22:09:08.700Z,32.60
2022-08-08T22:11:58.861Z,32.60
2022-08-08T22:14:21.874Z,32.59
2022-08-08T22:16:51.089Z,32.56
2022-08-08T22:19:20.096Z,32.56
2022-08-08T22:21:50.628Z,32.57
2022-08-08T22:24:17.342Z,32.56
2022-08-08T22:27:02.183Z,32.58
2022-08-08T22:30:01.001Z,32.57
2022-08-08T22:32:16.060Z,33.13
2022-08-08T22:34:44.789Z,32.79
2022-08-08T22:37:49.061Z,32.61
2022-08-08T22:40:03.756Z,32.57
2022-08-08T22:42:31.990Z,32.58
2022-08-08T22:45:01.027Z,32.55
2022-08-08T22:47:34.385Z,32.54
2022-08-08T22:50:21.715Z,32.55
2022-08-08T22:54:19.472Z,32.55
2022-08-08T22:55:59.475Z,32.56
2022-08-08T22:58:28.405Z,32.53
2022-08-08T23:00:55.436Z,32.52
2022-08-08T23:03:21.868Z,32.54
2022-08-08T23:05:49.770Z,32.56
2022-08-08T23:08:18.015Z,32.56
2022-08-08T23:10:46.435Z,32.95
2022-08-08T23:13:19.617Z,32.89
2022-08-08T23:16:39.331Z,32.61
2022-08-08T23:18:34.850Z,32.56
2022-08-08T23:21:01.243Z,32.54
2022-08-08T23:23:30.314Z,32.55
2022-08-08T23:25:57.892Z,32.52
2022-08-08T23:28:24.282Z,32.51
2022-08-08T23:30:50.878Z,32.52
2022-08-08T23:33:35.876Z,32.51
2022-08-08T23:36:08.003Z,32.53
2022-08-08T23:38:35.624Z,32.54
2022-08-08T23:41:02.048Z,32.53
2022-08-08T23:43:45.507Z,32.52
2022-08-08T23:49:03.886Z,32.52
2022-08-08T23:49:14.729Z,32.83
2022-08-08T23:51:42.219Z,32.95
2022-08-08T23:54:42.753Z,32.60
2022-08-08T23:57:15.382Z,32.54
